Season 21
 
 
 

TWL – Player Statistics
 


Seasons: 1 - 2 - 3 - 4 - 5 - 6 - 7 - 8 - 9 - 10 - 11 - 12 - 13 - 14 - 15 - 16 - 17 - 18 - 19 - 20 - 21

Leagues: All Leagues - TWLD - TWLJ - TWLB

Ships: All ships - Warbird - Javelin - Spider - Terrier - Lancaster - Shark

Player Squad G R W L AVK HW AVD AVP RT LO SUB TP
turmio Penetrate 10 10 893 617 89 123 62 15010 131515 1 0 4:49:04
Trasher Penetrate 10 10 983 420 98 128 42 16535 258009 0 1 4:42:39
Leitz Pandora 9 9 771 572 86 111 64 14261 117056 2 0 4:05:04
zhou Penetrate 9 9 745 448 83 122 50 15108 137272 0 1 4:00:17
JAMAL dicE 8 8 615 355 77 116 44 10870 103039 0 0 3:41:03
saetep Freebie 8 8 654 408 83 115 57 11346 90874 0 0 3:40:47
megaman89 dicE 8 8 626 293 76 110 39 11755 126346 0 0 3:31:26
Frank The Tank! Freebie 7 7 511 414 73 111 59 10386 66677 1 0 3:29:43
Gazo Sage 8 8 677 386 85 139 48 12816 145431 1 1 3:26:33
shayde Pandora 7 7 662 428 95 115 61 15753 120298 0 0 3:26:33
SARGER Pandora 8 8 587 443 73 118 55 11264 76499 5 3 3:26:23
M_M God Sage 8 8 540 316 64 106 38 11764 88591 1 0 3:09:57
NL>Trigger Sage 8 8 490 350 61 79 44 10429 76244 2 1 3:05:54
Whimp Sage 6 6 461 327 77 102 55 11931 60283 0 0 2:47:34
Dsin Pandora 7 7 462 320 66 99 46 12690 67674 0 2 2:43:04
cripple dicE 6 6 540 313 90 133 52 12193 118430 2 1 2:42:22
renzi Pandora 8 8 455 261 61 108 34 11280 72733 2 3 2:35:23
superstar-PROkiller Sage 6 6 444 388 74 102 65 10928 39413 0 0 2:34:00
Ricko Freebie 5 5 439 328 88 109 66 11710 50895 3 0 2:32:25
POXY Sweet 6 6 376 301 63 97 50 6985 32952 0 0 2:32:01
zeebu Sweet 7 7 308 256 51 98 40 6288 21998 0 0 2:24:30
panama dicE 5 5 356 200 71 84 40 10318 56018 4 1 2:15:54
Dutch Baser Freebie 5 5 404 272 84 109 55 10676 60280 0 0 2:15:37
AcidBomber Penetrate 5 5 313 216 65 95 45 16858 28896 0 0 2:10:14
turban Sk8 5 5 362 234 91 119 61 11606 51371 5 0 2:09:38
TPZ Freebie 5 5 301 226 61 99 46 8156 34198 0 3 2:06:42
Anidalife dicE 6 6 325 208 54 90 35 8398 38530 0 1 2:06:27
Zung Pandora 4 4 430 292 108 135 73 18103 86719 0 0 2:05:13
diakka Pandora 5 5 386 226 82 108 46 13296 66751 0 0 2:02:41
SwirE Sweet 4 4 339 218 85 96 55 8720 41010 0 0 2:01:27
Zizzo Sk8 4 4 335 313 84 116 78 9979 22743 0 1 1:57:08
FIT OF RAGE Penetrate 6 6 363 172 61 87 29 12979 82709 0 1 1:53:54
sacra Sweet 4 4 241 231 60 76 58 7016 9187 0 0 1:53:36
Stayon dicE 7 7 271 156 39 102 22 7019 46404 5 5 1:51:34
i.d. Sk8 4 4 357 222 89 109 56 12127 59802 0 1 1:50:25
Violence Freebie 4 4 299 218 76 89 62 12030 46523 0 0 1:49:33
TheWadoRooster TrAUMA+ 4 4 238 197 60 78 49 5226 15903 0 0 1:45:32
temporary Penetrate 4 4 379 200 95 158 50 15068 104508 5 1 1:41:53
Spikey Sage 4 4 296 247 90 129 76 14159 32540 1 0 1:38:34
Davy Penetrate 4 4 351 159 88 156 40 14445 88769 1 1 1:37:13
Minotar Penetrate 3 3 283 168 94 98 56 15407 58647 0 0 1:34:10
humid Sk8 3 3 249 181 83 103 60 10858 30214 0 0 1:29:25
Lionheart Sweet 4 4 271 151 68 134 38 8297 54758 1 1 1:22:06
Nit3 TrAUMA+ 4 4 184 177 44 72 52 3661 5545 4 0 1:22:04
Hulk Freebie 4 4 200 127 51 105 57 5739 24341 0 0 1:21:10
Riff_Raff dicE 3 3 259 106 86 110 35 14544 58706 0 0 1:20:20
PjOtTeR Sweet 3 3 213 200 72 79 67 9023 9919 2 0 1:20:14
cuji Sk8 4 4 229 167 57 108 42 7441 29266 0 0 1:15:56
Necromotic Sk8 4 4 260 207 78 111 66 10196 25814 0 0 1:15:53
Ease Sk8 3 3 220 172 73 104 57 7960 16719 0 1 1:15:37
qs TrAUMA+ 3 3 139 187 46 65 62 3730 2032 2 0 1:10:15
EVUL Pandora 4 4 224 123 56 83 31 9260 39081 0 0 1:07:47
squallFF8 Pandora 3 3 176 114 59 73 38 10727 22563 0 0 1:06:09
cyrus Sage 3 3 194 149 65 95 50 6807 15547 0 0 1:06:03
hector yazalde Sage 3 3 204 139 68 120 46 10851 31972 0 1 1:06:03
l>$B Pandora 2 2 229 103 115 117 52 18065 58442 0 0 1:04:22
thix Sweet 3 3 127 96 43 103 32 5434 17487 10 1 1:01:58
sCHOPe NORRIS TrAUMA+ 3 3 152 111 51 59 38 1270 2261 0 0 1:00:32
Raples Sk8 2 2 182 96 91 93 48 11907 31537 0 0 1:00:07
paska dicE 3 3 125 68 42 79 23 9712 22217 1 1 0:58:54
Jason Sweet 2 2 106 98 53 54 49 6170 5763 1 0 0:55:13
bolt Freebie 2 2 121 91 61 67 46 9490 8398 0 1 0:54:35
Mr.Todolorosso TrAUMA+ 2 2 112 99 56 73 50 4835 6442 0 0 0:49:22
BrokenFist Penetrate 2 2 134 72 67 91 36 10486 18516 0 0 0:37:53
scoop Sk8 2 2 109 82 55 74 41 6435 5780 0 0 0:37:37
Dr.Coiff Freebie 2 2 108 85 54 86 43 8633 8212 0 0 0:36:56
Dead_Rain Sweet 2 2 116 84 61 109 46 8325 18344 1 0 0:36:26
blood Sweet 1 1 93 63 93 93 63 12348 12980 0 0 0:34:34
Ephemeral TrAUMA+ 1 1 64 61 64 64 61 7599 3337 2 0 0:33:45
cocaine TrAUMA+ 2 2 57 75 29 47 38 1708 -272 0 1 0:33:42
OCB TrAUMA+ 1 1 80 85 80 80 85 10335 5266 0 0 0:33:39
kid Freebie 2 2 110 67 55 63 34 7078 12865 0 0 0:33:19
Burnt Sk8 1 1 109 60 109 109 60 16212 19947 0 0 0:33:16
Remu Sweet 1 1 90 65 90 90 65 9106 8770 0 0 0:32:55
Raspi Sweet 2 2 95 70 75 58 60 12350 4897 0 1 0:31:01
nokkonen dicE 2 2 88 37 44 88 19 9842 21236 0 1 0:30:03
wbm dicE 2 2 103 70 52 97 35 7920 17243 0 0 0:29:46
Cucu TrAUMA+ 1 1 78 43 78 78 43 7498 8493 3 0 0:29:16
SDMS3 Sweet 1 1 49 40 49 49 40 7838 2332 0 1 0:27:53
RUCCI Pandora 1 1 97 38 97 97 38 16567 25142 0 0 0:27:51
idk&idc Sage 1 1 65 69 65 65 69 8825 3402 0 1 0:26:26
Fludd Sk8 1 1 52 46 52 52 46 8984 3259 0 1 0:23:23
celly Penetrate 1 1 44 34 66 40 49 24342 3100 0 0 0:23:20
Teh Super Sage 1 1 68 39 68 68 39 7923 7099 0 0 0:22:12
Scarce Sweet 1 1 57 60 57 57 60 6969 1630 0 0 0:21:57
EO-50 TrAUMA+ 2 2 26 38 15 20 38 1005 -13 0 1 0:21:42
Dazz TrAUMA+ 1 1 41 46 41 41 46 928 71 2 0 0:21:33
SurpasseD TrAUMA+ 2 2 71 53 36 49 52 3546 2906 0 0 0:21:20
mci TrAUMA+ 1 1 43 53 43 43 53 890 105 0 0 0:19:01
Cape dicE 3 3 58 25 28 27 12 5927 3235 1 2 0:17:11
Arobas+ Freebie 1 1 21 10 21 21 10 4038 1498 2 1 0:15:28
spell TrAUMA+ 1 1 1 0 1 1 0 4 0 0 1 0:15:14
Mr. Brown Sage 1 1 62 36 62 62 36 11867 9289 0 0 0:15:03
jerome TrAUMA+ 1 1 56 39 56 56 39 7679 3449 0 0 0:15:00
luige TrAUMA+ 1 1 21 36 21 21 36 483 -86 1 1 0:13:26
Mess dicE 1 1 40 33 40 40 33 2842 611 0 0 0:13:09
Zyclon Sage 1 1 2 0 2 2 0 1629 52 2 1 0:13:07
money Pandora 1 1 44 31 44 44 31 11215 4023 0 0 0:12:51
Dak Sweet 1 1 18 34 18 18 34 153 -28 0 0 0:10:11
oDeRus UrUnGuS Pandora 1 1 9 1 9 9 1 4698 858 0 1 0:10:08
Major Crisis Sage 1 1 14 29 14 14 29 4138 -905 0 1 0:09:22
usoi Penetrate 1 1 10 9 10 10 9 3081 483 2 1 0:05:49
dald Sk8 1 1 1 0 1 1 0 2603 92 0 1 0:04:58
tj hazuki Freebie 1 1 17 11 17 17 11 3626 686 0 0 0:04:26
Beng Freebie 1 1 5 4 5 5 4 1830 107 0 1 0:02:31
meow TrAUMA+ 1 1 6 8 6 6 8 48 0 0 0 0:01:57
maketso dicE 1 1 7 3 7 7 3 1040 115 0 0 0:01:23
Downfall Freebie 1 1 4 1 10 4 76 1134 6 0 0 0:00:55
riske dicE 1 1 2 2 2 2 2 28 0 0 0 0:00:45
Everett dicE 1 1 2 1 10 2 6 1580 26 0 1 0:00:15
havok dicE 1 1 0 0 4 0 93 3234 0 0 0 0:00:09
Sphinktor Freebie 1 1 1 0 1 1 0 205 7 0 0 0:00:08
Cintra Penetrate 1 1 0 0 36 0 4 9481 0 0 0 0:00:07
Bacon Penetrate 1 1 0 0 9 0 6 2271 0 0 0 0:00:02

 
 

Central: Pacific: Eastern:
London: New Zealand: Australia:
Helsinki: Brazil: Netherlands: